首页
METAR-TAF:

METAR-TAF

机场 :

喀土穆, 苏丹共和国

喀土穆国际机场

纬度: 15-36N, 经度: 032-33E, 海拔: 382米

当前天气观测

该预报发布于29分钟前的14:00 UTC
风速10节,风向北转东北
温度 30°C
湿度 12%
气压 1012 hPa
能见度10公里或以上
1500米以下无云,无积雨云

METAR: HSSS 221400Z 02010KT CAVOK 30/M03 Q1012 NOSIG

时间: 17:29 (14:29 UTC)

预报

该预报发布于3小时和29分钟前的11:00 UTC
预报有效从22日的 12点(UTC)到 23日的 18点(UTC)
风速14节,风向,有时为24节阵风
能見度: 8000
几率 30% :
短暂存在
从 22日的 20点(UTC)到 23日的 06点(UTC)
风速20节,风向北转西北,有时为40节阵风
能見度: 3000
高吹沙
短暂存在
从 23日的 06点(UTC)到 23日的 10点(UTC)
能見度: 6000

TAF: HSSS 221100Z 2212/2318 36014G24KT 8000 NSW PROB30 TEMPO 2220/2306 33020G40KT 3000 BLSA TEMPO 2306/2310 6000

超过4000个机场的气象观测和天气预报(METAR&TAF报告)。

可查询的气象台以黄色和红色小点在地图上表示。

将鼠标移到小点上方,可查看气象台名称。

然后点击查看天气观测和预报。

如需切换地图:点击带黑十字的绿色按钮放大地图;点击带横线的绿色按钮缩小地图;或者点击绿色箭头查看邻近地区的地图。


METAR-TAF: